sensor_id;sensor_type;location;lat;lon;timestamp;P1;durP1;ratioP1;P2;durP2;ratioP2
50393;SDS011;36308;46.312;25.288;2022-10-16T00:01:15;11.27;;;7.35;;
50393;SDS011;36308;46.312;25.288;2022-10-16T00:03:43;11.73;;;7.88;;
50393;SDS011;36308;46.312;25.288;2022-10-16T00:06:10;13.68;;;7.25;;
50393;SDS011;36308;46.312;25.288;2022-10-16T00:08:36;11.32;;;7.38;;
50393;SDS011;36308;46.312;25.288;2022-10-16T00:11:04;13.02;;;7.63;;
50393;SDS011;36308;46.312;25.288;2022-10-16T00:13:32;13.30;;;7.68;;
50393;SDS011;36308;46.312;25.288;2022-10-16T00:15:58;12.05;;;7.20;;
50393;SDS011;36308;46.312;25.288;2022-10-16T00:18:25;15.40;;;7.85;;
50393;SDS011;36308;46.312;25.288;2022-10-16T00:20:52;13.70;;;7.47;;
50393;SDS011;36308;46.312;25.288;2022-10-16T00:23:18;11.57;;;7.32;;
50393;SDS011;36308;46.312;25.288;2022-10-16T00:25:43;13.55;;;7.13;;
50393;SDS011;36308;46.312;25.288;2022-10-16T00:28:09;17.45;;;7.07;;
50393;SDS011;36308;46.312;25.288;2022-10-16T00:30:37;13.57;;;7.30;;
50393;SDS011;36308;46.312;25.288;2022-10-16T00:33:03;11.40;;;7.75;;
50393;SDS011;36308;46.312;25.288;2022-10-16T00:35:28;13.35;;;8.13;;
50393;SDS011;36308;46.312;25.288;2022-10-16T00:37:54;13.82;;;7.93;;
50393;SDS011;36308;46.312;25.288;2022-10-16T00:40:19;13.93;;;8.93;;
50393;SDS011;36308;46.312;25.288;2022-10-16T00:42:45;14.20;;;8.65;;
50393;SDS011;36308;46.312;25.288;2022-10-16T00:45:10;12.38;;;8.18;;
50393;SDS011;36308;46.312;25.288;2022-10-16T00:47:37;13.70;;;8.30;;
50393;SDS011;36308;46.312;25.288;2022-10-16T00:52:46;15.13;;;8.32;;
50393;SDS011;36308;46.312;25.288;2022-10-16T00:55:14;13.48;;;8.55;;
50393;SDS011;36308;46.312;25.288;2022-10-16T00:57:41;11.32;;;7.50;;
50393;SDS011;36308;46.312;25.288;2022-10-16T01:00:09;13.82;;;8.18;;
50393;SDS011;36308;46.312;25.288;2022-10-16T01:02:36;11.02;;;7.32;;
50393;SDS011;36308;46.312;25.288;2022-10-16T01:05:02;11.65;;;7.22;;
50393;SDS011;36308;46.312;25.288;2022-10-16T01:10:03;10.95;;;6.60;;
50393;SDS011;36308;46.312;25.288;2022-10-16T01:15:22;14.02;;;7.45;;
50393;SDS011;36308;46.312;25.288;2022-10-16T01:21:21;11.02;;;6.20;;
50393;SDS011;36308;46.312;25.288;2022-10-16T01:29:25;9.48;;;5.93;;
50393;SDS011;36308;46.312;25.288;2022-10-16T01:32:18;37.65;;;9.55;;
50393;SDS011;36308;46.312;25.288;2022-10-16T01:34:42;11.45;;;5.97;;
50393;SDS011;36308;46.312;25.288;2022-10-16T01:37:34;10.57;;;6.43;;
50393;SDS011;36308;46.312;25.288;2022-10-16T01:40:05;10.00;;;5.90;;
50393;SDS011;36308;46.312;25.288;2022-10-16T01:42:39;9.98;;;6.03;;
50393;SDS011;36308;46.312;25.288;2022-10-16T01:45:07;10.93;;;6.60;;
50393;SDS011;36308;46.312;25.288;2022-10-16T01:47:38;12.27;;;6.22;;
50393;SDS011;36308;46.312;25.288;2022-10-16T01:50:04;8.98;;;5.95;;
50393;SDS011;36308;46.312;25.288;2022-10-16T01:52:32;9.43;;;6.63;;
50393;SDS011;36308;46.312;25.288;2022-10-16T01:55:02;8.85;;;5.70;;
50393;SDS011;36308;46.312;25.288;2022-10-16T01:57:31;10.98;;;5.70;;
50393;SDS011;36308;46.312;25.288;2022-10-16T02:00:00;10.88;;;6.13;;
50393;SDS011;36308;46.312;25.288;2022-10-16T02:02:29;10.65;;;5.97;;
50393;SDS011;36308;46.312;25.288;2022-10-16T02:05:01;12.20;;;5.78;;
50393;SDS011;36308;46.312;25.288;2022-10-16T02:07:49;10.10;;;6.10;;
50393;SDS011;36308;46.312;25.288;2022-10-16T02:10:14;12.05;;;5.82;;
50393;SDS011;36308;46.312;25.288;2022-10-16T02:12:42;8.98;;;5.60;;
50393;SDS011;36308;46.312;25.288;2022-10-16T02:15:13;10.13;;;6.45;;
50393;SDS011;36308;46.312;25.288;2022-10-16T02:17:38;12.27;;;6.78;;
50393;SDS011;36308;46.312;25.288;2022-10-16T02:20:04;11.20;;;6.35;;
50393;SDS011;36308;46.312;25.288;2022-10-16T02:22:40;14.23;;;6.00;;
50393;SDS011;36308;46.312;25.288;2022-10-16T02:27:42;11.43;;;6.43;;
50393;SDS011;36308;46.312;25.288;2022-10-16T02:30:25;11.70;;;6.28;;
50393;SDS011;36308;46.312;25.288;2022-10-16T02:32:52;10.82;;;6.68;;
50393;SDS011;36308;46.312;25.288;2022-10-16T02:35:19;10.73;;;5.82;;
50393;SDS011;36308;46.312;25.288;2022-10-16T02:37:47;9.93;;;5.95;;
50393;SDS011;36308;46.312;25.288;2022-10-16T02:40:15;11.68;;;6.28;;
50393;SDS011;36308;46.312;25.288;2022-10-16T02:42:41;9.45;;;6.20;;
50393;SDS011;36308;46.312;25.288;2022-10-16T02:45:08;10.43;;;5.90;;
50393;SDS011;36308;46.312;25.288;2022-10-16T02:47:35;10.32;;;5.35;;
50393;SDS011;36308;46.312;25.288;2022-10-16T02:50:00;11.40;;;6.30;;
50393;SDS011;36308;46.312;25.288;2022-10-16T02:52:26;9.25;;;5.80;;
50393;SDS011;36308;46.312;25.288;2022-10-16T02:54:52;9.00;;;5.82;;
50393;SDS011;36308;46.312;25.288;2022-10-16T02:57:18;10.18;;;6.28;;
50393;SDS011;36308;46.312;25.288;2022-10-16T02:59:44;12.15;;;6.10;;
50393;SDS011;36308;46.312;25.288;2022-10-16T03:02:10;10.25;;;5.53;;
50393;SDS011;36308;46.312;25.288;2022-10-16T03:04:36;10.15;;;6.30;;
50393;SDS011;36308;46.312;25.288;2022-10-16T03:07:02;9.00;;;5.95;;
50393;SDS011;36308;46.312;25.288;2022-10-16T03:09:27;8.15;;;5.45;;
50393;SDS011;36308;46.312;25.288;2022-10-16T03:11:52;14.32;;;6.50;;
50393;SDS011;36308;46.312;25.288;2022-10-16T03:14:18;8.75;;;5.55;;
50393;SDS011;36308;46.312;25.288;2022-10-16T03:16:43;12.05;;;6.43;;
50393;SDS011;36308;46.312;25.288;2022-10-16T03:19:09;9.63;;;5.20;;
50393;SDS011;36308;46.312;25.288;2022-10-16T03:21:34;10.98;;;5.85;;
50393;SDS011;36308;46.312;25.288;2022-10-16T03:24:00;9.88;;;6.25;;
50393;SDS011;36308;46.312;25.288;2022-10-16T03:26:25;9.77;;;5.93;;
50393;SDS011;36308;46.312;25.288;2022-10-16T03:28:50;10.43;;;5.93;;
50393;SDS011;36308;46.312;25.288;2022-10-16T03:31:16;10.80;;;6.32;;
50393;SDS011;36308;46.312;25.288;2022-10-16T03:33:41;9.63;;;6.03;;
50393;SDS011;36308;46.312;25.288;2022-10-16T03:36:07;9.60;;;5.80;;
50393;SDS011;36308;46.312;25.288;2022-10-16T03:38:32;10.55;;;5.63;;
50393;SDS011;36308;46.312;25.288;2022-10-16T03:40:58;9.00;;;5.55;;
50393;SDS011;36308;46.312;25.288;2022-10-16T03:43:23;11.27;;;5.75;;
50393;SDS011;36308;46.312;25.288;2022-10-16T03:45:52;7.90;;;5.40;;
50393;SDS011;36308;46.312;25.288;2022-10-16T03:48:18;12.15;;;5.63;;
50393;SDS011;36308;46.312;25.288;2022-10-16T03:50:43;9.43;;;6.00;;
50393;SDS011;36308;46.312;25.288;2022-10-16T03:53:09;9.32;;;5.72;;
50393;SDS011;36308;46.312;25.288;2022-10-16T03:55:35;10.70;;;5.00;;
50393;SDS011;36308;46.312;25.288;2022-10-16T03:58:00;8.38;;;5.57;;
50393;SDS011;36308;46.312;25.288;2022-10-16T04:00:26;9.45;;;5.97;;
50393;SDS011;36308;46.312;25.288;2022-10-16T04:02:52;8.07;;;4.95;;
50393;SDS011;36308;46.312;25.288;2022-10-16T04:05:17;10.52;;;6.25;;
50393;SDS011;36308;46.312;25.288;2022-10-16T04:07:43;8.55;;;5.40;;
50393;SDS011;36308;46.312;25.288;2022-10-16T04:10:08;9.35;;;5.85;;
50393;SDS011;36308;46.312;25.288;2022-10-16T04:12:34;8.07;;;5.30;;
50393;SDS011;36308;46.312;25.288;2022-10-16T04:14:59;11.80;;;5.85;;
50393;SDS011;36308;46.312;25.288;2022-10-16T04:17:25;11.52;;;6.20;;
50393;SDS011;36308;46.312;25.288;2022-10-16T04:19:50;8.82;;;5.60;;
50393;SDS011;36308;46.312;25.288;2022-10-16T04:22:16;22.20;;;13.18;;
50393;SDS011;36308;46.312;25.288;2022-10-16T04:24:41;18.67;;;10.85;;
50393;SDS011;36308;46.312;25.288;2022-10-16T04:27:06;16.05;;;9.32;;
50393;SDS011;36308;46.312;25.288;2022-10-16T04:29:32;10.80;;;7.30;;
50393;SDS011;36308;46.312;25.288;2022-10-16T04:31:57;18.95;;;12.55;;
50393;SDS011;36308;46.312;25.288;2022-10-16T04:34:23;20.42;;;12.65;;
50393;SDS011;36308;46.312;25.288;2022-10-16T04:36:49;10.73;;;7.43;;
50393;SDS011;36308;46.312;25.288;2022-10-16T04:39:15;9.35;;;6.25;;
50393;SDS011;36308;46.312;25.288;2022-10-16T04:41:41;24.40;;;13.57;;
50393;SDS011;36308;46.312;25.288;2022-10-16T04:44:06;30.75;;;17.50;;
50393;SDS011;36308;46.312;25.288;2022-10-16T04:46:32;14.02;;;8.45;;
50393;SDS011;36308;46.312;25.288;2022-10-16T04:48:57;23.52;;;12.80;;
50393;SDS011;36308;46.312;25.288;2022-10-16T04:51:23;33.25;;;22.02;;
50393;SDS011;36308;46.312;25.288;2022-10-16T04:53:49;36.97;;;25.83;;
50393;SDS011;36308;46.312;25.288;2022-10-16T04:56:14;19.73;;;14.32;;
50393;SDS011;36308;46.312;25.288;2022-10-16T04:58:40;16.33;;;9.52;;
50393;SDS011;36308;46.312;25.288;2022-10-16T05:01:05;21.33;;;16.08;;
50393;SDS011;36308;46.312;25.288;2022-10-16T05:03:31;24.08;;;14.30;;
50393;SDS011;36308;46.312;25.288;2022-10-16T05:05:56;20.40;;;11.52;;
50393;SDS011;36308;46.312;25.288;2022-10-16T05:08:22;18.65;;;9.63;;
50393;SDS011;36308;46.312;25.288;2022-10-16T05:10:47;14.35;;;7.68;;
50393;SDS011;36308;46.312;25.288;2022-10-16T05:13:12;9.98;;;6.32;;
50393;SDS011;36308;46.312;25.288;2022-10-16T05:15:38;11.90;;;6.60;;
50393;SDS011;36308;46.312;25.288;2022-10-16T05:18:03;19.80;;;8.90;;
50393;SDS011;36308;46.312;25.288;2022-10-16T05:20:29;13.48;;;9.00;;
50393;SDS011;36308;46.312;25.288;2022-10-16T05:22:55;14.57;;;8.82;;
50393;SDS011;36308;46.312;25.288;2022-10-16T05:25:20;14.07;;;7.70;;
50393;SDS011;36308;46.312;25.288;2022-10-16T05:27:49;17.73;;;8.95;;
50393;SDS011;36308;46.312;25.288;2022-10-16T05:30:15;13.02;;;8.43;;
50393;SDS011;36308;46.312;25.288;2022-10-16T05:32:41;13.00;;;8.80;;
50393;SDS011;36308;46.312;25.288;2022-10-16T05:35:07;12.90;;;8.55;;
50393;SDS011;36308;46.312;25.288;2022-10-16T05:37:32;19.27;;;12.77;;
50393;SDS011;36308;46.312;25.288;2022-10-16T05:39:58;14.75;;;10.55;;
50393;SDS011;36308;46.312;25.288;2022-10-16T05:42:23;16.42;;;11.60;;
50393;SDS011;36308;46.312;25.288;2022-10-16T05:44:48;15.57;;;11.18;;
50393;SDS011;36308;46.312;25.288;2022-10-16T05:47:14;16.40;;;12.90;;
50393;SDS011;36308;46.312;25.288;2022-10-16T05:49:39;16.08;;;10.55;;
50393;SDS011;36308;46.312;25.288;2022-10-16T05:52:05;16.40;;;10.57;;
50393;SDS011;36308;46.312;25.288;2022-10-16T05:54:31;22.63;;;15.13;;
50393;SDS011;36308;46.312;25.288;2022-10-16T05:56:56;18.15;;;12.80;;
50393;SDS011;36308;46.312;25.288;2022-10-16T05:59:22;20.65;;;14.52;;
50393;SDS011;36308;46.312;25.288;2022-10-16T06:01:47;21.50;;;14.52;;
50393;SDS011;36308;46.312;25.288;2022-10-16T06:04:13;25.63;;;16.30;;
50393;SDS011;36308;46.312;25.288;2022-10-16T06:06:39;22.80;;;15.05;;
50393;SDS011;36308;46.312;25.288;2022-10-16T06:09:04;21.13;;;13.75;;
50393;SDS011;36308;46.312;25.288;2022-10-16T06:11:31;22.67;;;13.68;;
50393;SDS011;36308;46.312;25.288;2022-10-16T06:13:58;23.40;;;13.32;;
50393;SDS011;36308;46.312;25.288;2022-10-16T06:16:27;20.00;;;12.95;;
50393;SDS011;36308;46.312;25.288;2022-10-16T06:18:53;24.42;;;13.63;;
50393;SDS011;36308;46.312;25.288;2022-10-16T06:21:21;24.02;;;13.88;;
50393;SDS011;36308;46.312;25.288;2022-10-16T06:23:50;24.27;;;13.45;;
50393;SDS011;36308;46.312;25.288;2022-10-16T06:26:16;20.27;;;13.13;;
50393;SDS011;36308;46.312;25.288;2022-10-16T06:28:43;21.45;;;13.57;;
50393;SDS011;36308;46.312;25.288;2022-10-16T06:31:09;22.75;;;14.23;;
50393;SDS011;36308;46.312;25.288;2022-10-16T06:33:36;21.40;;;14.82;;
50393;SDS011;36308;46.312;25.288;2022-10-16T06:36:10;22.25;;;13.77;;
50393;SDS011;36308;46.312;25.288;2022-10-16T06:38:37;19.02;;;13.40;;
50393;SDS011;36308;46.312;25.288;2022-10-16T06:41:03;20.13;;;13.68;;
50393;SDS011;36308;46.312;25.288;2022-10-16T06:43:29;20.92;;;14.20;;
50393;SDS011;36308;46.312;25.288;2022-10-16T06:46:00;20.40;;;13.13;;
50393;SDS011;36308;46.312;25.288;2022-10-16T06:48:26;17.20;;;12.35;;
50393;SDS011;36308;46.312;25.288;2022-10-16T06:50:56;19.42;;;12.60;;
50393;SDS011;36308;46.312;25.288;2022-10-16T06:53:22;21.80;;;12.43;;
50393;SDS011;36308;46.312;25.288;2022-10-16T06:55:48;18.73;;;12.43;;
50393;SDS011;36308;46.312;25.288;2022-10-16T06:58:13;20.98;;;12.23;;
50393;SDS011;36308;46.312;25.288;2022-10-16T07:00:39;20.20;;;13.68;;
50393;SDS011;36308;46.312;25.288;2022-10-16T07:03:04;23.25;;;14.13;;
50393;SDS011;36308;46.312;25.288;2022-10-16T07:05:30;18.70;;;13.27;;
50393;SDS011;36308;46.312;25.288;2022-10-16T07:07:55;23.23;;;13.68;;
50393;SDS011;36308;46.312;25.288;2022-10-16T07:10:20;24.48;;;15.98;;
50393;SDS011;36308;46.312;25.288;2022-10-16T07:12:49;20.38;;;14.00;;
50393;SDS011;36308;46.312;25.288;2022-10-16T07:15:14;19.65;;;14.18;;
50393;SDS011;36308;46.312;25.288;2022-10-16T07:17:40;21.08;;;14.13;;
50393;SDS011;36308;46.312;25.288;2022-10-16T07:20:05;19.15;;;13.40;;
50393;SDS011;36308;46.312;25.288;2022-10-16T07:22:31;21.77;;;14.27;;
50393;SDS011;36308;46.312;25.288;2022-10-16T07:24:57;22.73;;;13.15;;
50393;SDS011;36308;46.312;25.288;2022-10-16T07:27:23;16.85;;;12.02;;
50393;SDS011;36308;46.312;25.288;2022-10-16T07:29:49;23.08;;;15.15;;
50393;SDS011;36308;46.312;25.288;2022-10-16T07:32:15;21.42;;;15.55;;
50393;SDS011;36308;46.312;25.288;2022-10-16T07:34:40;23.23;;;15.13;;
50393;SDS011;36308;46.312;25.288;2022-10-16T07:37:07;23.08;;;15.13;;
50393;SDS011;36308;46.312;25.288;2022-10-16T07:39:32;21.38;;;14.73;;
50393;SDS011;36308;46.312;25.288;2022-10-16T07:41:58;22.92;;;14.95;;
50393;SDS011;36308;46.312;25.288;2022-10-16T07:44:23;21.17;;;14.73;;
50393;SDS011;36308;46.312;25.288;2022-10-16T07:46:48;20.17;;;13.30;;
50393;SDS011;36308;46.312;25.288;2022-10-16T07:49:14;18.75;;;12.98;;
50393;SDS011;36308;46.312;25.288;2022-10-16T07:51:39;20.05;;;12.38;;
50393;SDS011;36308;46.312;25.288;2022-10-16T07:54:05;19.25;;;13.48;;
50393;SDS011;36308;46.312;25.288;2022-10-16T07:56:30;17.27;;;12.93;;
50393;SDS011;36308;46.312;25.288;2022-10-16T07:58:57;20.00;;;14.35;;
50393;SDS011;36308;46.312;25.288;2022-10-16T08:01:22;17.58;;;12.00;;
50393;SDS011;36308;46.312;25.288;2022-10-16T08:03:48;18.35;;;12.68;;
50393;SDS011;36308;46.312;25.288;2022-10-16T08:06:15;23.67;;;15.90;;
50393;SDS011;36308;46.312;25.288;2022-10-16T08:08:41;17.20;;;11.98;;
50393;SDS011;36308;46.312;25.288;2022-10-16T08:11:07;18.38;;;11.77;;
50393;SDS011;36308;46.312;25.288;2022-10-16T08:13:33;19.10;;;12.35;;
50393;SDS011;36308;46.312;25.288;2022-10-16T08:15:59;18.40;;;12.35;;
50393;SDS011;36308;46.312;25.288;2022-10-16T08:18:24;18.20;;;11.80;;
50393;SDS011;36308;46.312;25.288;2022-10-16T08:20:56;17.08;;;11.55;;
50393;SDS011;36308;46.312;25.288;2022-10-16T08:23:23;17.08;;;10.63;;
50393;SDS011;36308;46.312;25.288;2022-10-16T08:25:50;14.48;;;9.38;;
50393;SDS011;36308;46.312;25.288;2022-10-16T08:28:17;13.60;;;8.43;;
50393;SDS011;36308;46.312;25.288;2022-10-16T08:30:42;14.60;;;9.70;;
50393;SDS011;36308;46.312;25.288;2022-10-16T08:33:08;13.88;;;9.00;;
50393;SDS011;36308;46.312;25.288;2022-10-16T08:35:33;14.48;;;8.68;;
50393;SDS011;36308;46.312;25.288;2022-10-16T08:37:59;10.98;;;8.10;;
50393;SDS011;36308;46.312;25.288;2022-10-16T08:40:28;14.50;;;9.55;;
50393;SDS011;36308;46.312;25.288;2022-10-16T08:45:51;13.40;;;8.68;;
50393;SDS011;36308;46.312;25.288;2022-10-16T08:51:03;15.60;;;9.07;;
50393;SDS011;36308;46.312;25.288;2022-10-16T08:53:46;14.27;;;8.75;;
50393;SDS011;36308;46.312;25.288;2022-10-16T08:56:19;14.55;;;8.25;;
50393;SDS011;36308;46.312;25.288;2022-10-16T08:58:45;11.23;;;6.88;;
50393;SDS011;36308;46.312;25.288;2022-10-16T09:01:13;10.73;;;7.38;;
50393;SDS011;36308;46.312;25.288;2022-10-16T09:03:50;11.35;;;7.00;;
50393;SDS011;36308;46.312;25.288;2022-10-16T09:06:47;12.23;;;7.03;;
50393;SDS011;36308;46.312;25.288;2022-10-16T09:16:53;9.80;;;6.07;;
50393;SDS011;36308;46.312;25.288;2022-10-16T09:19:31;8.40;;;5.93;;
50393;SDS011;36308;46.312;25.288;2022-10-16T09:22:25;9.80;;;6.38;;
50393;SDS011;36308;46.312;25.288;2022-10-16T09:24:52;10.18;;;5.82;;
50393;SDS011;36308;46.312;25.288;2022-10-16T09:27:19;14.40;;;7.50;;
50393;SDS011;36308;46.312;25.288;2022-10-16T09:32:57;8.38;;;5.70;;
50393;SDS011;36308;46.312;25.288;2022-10-16T09:41:02;8.98;;;5.60;;
50393;SDS011;36308;46.312;25.288;2022-10-16T09:43:39;10.40;;;5.68;;
50393;SDS011;36308;46.312;25.288;2022-10-16T09:46:21;11.75;;;6.20;;
50393;SDS011;36308;46.312;25.288;2022-10-16T09:48:54;9.60;;;6.05;;
50393;SDS011;36308;46.312;25.288;2022-10-16T09:53:54;9.93;;;6.00;;
50393;SDS011;36308;46.312;25.288;2022-10-16T09:56:22;9.75;;;5.53;;
50393;SDS011;36308;46.312;25.288;2022-10-16T09:58:56;9.00;;;5.63;;
50393;SDS011;36308;46.312;25.288;2022-10-16T10:01:26;8.93;;;5.60;;
50393;SDS011;36308;46.312;25.288;2022-10-16T10:03:57;8.18;;;5.68;;
50393;SDS011;36308;46.312;25.288;2022-10-16T10:06:36;14.90;;;6.65;;
50393;SDS011;36308;46.312;25.288;2022-10-16T10:11:44;13.02;;;8.95;;
50393;SDS011;36308;46.312;25.288;2022-10-16T10:14:17;10.65;;;7.20;;
50393;SDS011;36308;46.312;25.288;2022-10-16T10:16:46;8.25;;;5.45;;
50393;SDS011;36308;46.312;25.288;2022-10-16T10:19:16;9.40;;;5.60;;
50393;SDS011;36308;46.312;25.288;2022-10-16T10:21:43;8.93;;;5.50;;
50393;SDS011;36308;46.312;25.288;2022-10-16T10:24:16;12.00;;;6.22;;
50393;SDS011;36308;46.312;25.288;2022-10-16T10:27:01;7.95;;;5.47;;
50393;SDS011;36308;46.312;25.288;2022-10-16T10:29:38;10.93;;;5.97;;
50393;SDS011;36308;46.312;25.288;2022-10-16T10:32:40;7.00;;;5.32;;
50393;SDS011;36308;46.312;25.288;2022-10-16T10:37:37;7.18;;;5.40;;
50393;SDS011;36308;46.312;25.288;2022-10-16T10:46:51;8.73;;;5.32;;
50393;SDS011;36308;46.312;25.288;2022-10-16T10:49:31;7.20;;;5.28;;
50393;SDS011;36308;46.312;25.288;2022-10-16T10:58:15;9.70;;;5.72;;
50393;SDS011;36308;46.312;25.288;2022-10-16T11:06:23;9.10;;;5.38;;
50393;SDS011;36308;46.312;25.288;2022-10-16T11:08:52;7.33;;;5.63;;
50393;SDS011;36308;46.312;25.288;2022-10-16T11:11:25;7.85;;;5.80;;
50393;SDS011;36308;46.312;25.288;2022-10-16T11:13:58;8.43;;;5.85;;
50393;SDS011;36308;46.312;25.288;2022-10-16T11:16:42;7.95;;;5.93;;
50393;SDS011;36308;46.312;25.288;2022-10-16T11:24:42;8.30;;;5.30;;
50393;SDS011;36308;46.312;25.288;2022-10-16T11:27:18;8.13;;;5.32;;
50393;SDS011;36308;46.312;25.288;2022-10-16T11:29:58;9.07;;;5.38;;
50393;SDS011;36308;46.312;25.288;2022-10-16T11:32:29;14.52;;;6.80;;
50393;SDS011;36308;46.312;25.288;2022-10-16T11:35:05;8.52;;;5.18;;
50393;SDS011;36308;46.312;25.288;2022-10-16T11:37:41;43.33;;;27.95;;
50393;SDS011;36308;46.312;25.288;2022-10-16T11:40:22;13.75;;;8.07;;
50393;SDS011;36308;46.312;25.288;2022-10-16T11:45:43;9.45;;;5.68;;
50393;SDS011;36308;46.312;25.288;2022-10-16T11:51:06;7.10;;;4.70;;
50393;SDS011;36308;46.312;25.288;2022-10-16T11:56:17;8.45;;;5.15;;
50393;SDS011;36308;46.312;25.288;2022-10-16T11:59:00;7.70;;;5.82;;
50393;SDS011;36308;46.312;25.288;2022-10-16T12:07:12;8.65;;;5.30;;
50393;SDS011;36308;46.312;25.288;2022-10-16T12:09:42;8.20;;;5.57;;
50393;SDS011;36308;46.312;25.288;2022-10-16T12:12:27;7.45;;;5.03;;
50393;SDS011;36308;46.312;25.288;2022-10-16T12:17:56;8.30;;;5.10;;
50393;SDS011;36308;46.312;25.288;2022-10-16T12:20:23;10.18;;;5.55;;
50393;SDS011;36308;46.312;25.288;2022-10-16T12:22:58;9.88;;;5.47;;
50393;SDS011;36308;46.312;25.288;2022-10-16T12:25:30;12.13;;;6.72;;
50393;SDS011;36308;46.312;25.288;2022-10-16T12:28:04;8.25;;;5.20;;
50393;SDS011;36308;46.312;25.288;2022-10-16T12:30:35;7.25;;;4.75;;
50393;SDS011;36308;46.312;25.288;2022-10-16T12:33:02;8.07;;;5.35;;
50393;SDS011;36308;46.312;25.288;2022-10-16T12:35:31;7.72;;;5.10;;
50393;SDS011;36308;46.312;25.288;2022-10-16T12:40:42;7.85;;;5.18;;
50393;SDS011;36308;46.312;25.288;2022-10-16T12:43:23;8.48;;;5.40;;
50393;SDS011;36308;46.312;25.288;2022-10-16T12:48:36;8.38;;;5.07;;
50393;SDS011;36308;46.312;25.288;2022-10-16T12:51:23;9.02;;;5.15;;
50393;SDS011;36308;46.312;25.288;2022-10-16T12:59:28;7.75;;;5.78;;
50393;SDS011;36308;46.312;25.288;2022-10-16T13:05:02;7.82;;;6.05;;
50393;SDS011;36308;46.312;25.288;2022-10-16T13:15:51;6.63;;;4.47;;
50393;SDS011;36308;46.312;25.288;2022-10-16T13:21:04;16.17;;;9.85;;
50393;SDS011;36308;46.312;25.288;2022-10-16T13:26:31;9.90;;;6.40;;
50393;SDS011;36308;46.312;25.288;2022-10-16T13:29:06;21.25;;;11.48;;
50393;SDS011;36308;46.312;25.288;2022-10-16T13:31:32;10.07;;;5.20;;
50393;SDS011;36308;46.312;25.288;2022-10-16T13:33:59;10.38;;;6.13;;
50393;SDS011;36308;46.312;25.288;2022-10-16T13:36:41;131.32;;;45.65;;
50393;SDS011;36308;46.312;25.288;2022-10-16T13:41:46;8.25;;;4.72;;
50393;SDS011;36308;46.312;25.288;2022-10-16T13:44:22;14.93;;;8.25;;
50393;SDS011;36308;46.312;25.288;2022-10-16T13:46:58;9.73;;;6.03;;
50393;SDS011;36308;46.312;25.288;2022-10-16T13:49:27;10.68;;;7.95;;
50393;SDS011;36308;46.312;25.288;2022-10-16T13:51:57;9.63;;;5.35;;
50393;SDS011;36308;46.312;25.288;2022-10-16T13:54:24;38.40;;;17.77;;
50393;SDS011;36308;46.312;25.288;2022-10-16T13:56:51;9.10;;;5.30;;
50393;SDS011;36308;46.312;25.288;2022-10-16T13:59:27;7.70;;;4.80;;
50393;SDS011;36308;46.312;25.288;2022-10-16T14:01:59;8.85;;;5.47;;
50393;SDS011;36308;46.312;25.288;2022-10-16T14:04:26;13.93;;;8.23;;
50393;SDS011;36308;46.312;25.288;2022-10-16T14:06:56;15.18;;;8.50;;
50393;SDS011;36308;46.312;25.288;2022-10-16T14:09:23;16.25;;;9.98;;
50393;SDS011;36308;46.312;25.288;2022-10-16T14:11:58;9.43;;;6.00;;
50393;SDS011;36308;46.312;25.288;2022-10-16T14:14:26;7.07;;;5.35;;
50393;SDS011;36308;46.312;25.288;2022-10-16T14:17:00;45.30;;;10.63;;
50393;SDS011;36308;46.312;25.288;2022-10-16T14:19:27;11.10;;;7.95;;
50393;SDS011;36308;46.312;25.288;2022-10-16T14:21:54;11.20;;;8.20;;
50393;SDS011;36308;46.312;25.288;2022-10-16T14:24:25;9.48;;;5.95;;
50393;SDS011;36308;46.312;25.288;2022-10-16T14:26:58;7.65;;;5.65;;
50393;SDS011;36308;46.312;25.288;2022-10-16T14:29:26;10.55;;;7.50;;
50393;SDS011;36308;46.312;25.288;2022-10-16T14:37:15;17.77;;;12.32;;
50393;SDS011;36308;46.312;25.288;2022-10-16T14:39:40;51.95;;;32.42;;
50393;SDS011;36308;46.312;25.288;2022-10-16T14:42:13;24.02;;;13.88;;
50393;SDS011;36308;46.312;25.288;2022-10-16T14:44:42;55.92;;;28.10;;
50393;SDS011;36308;46.312;25.288;2022-10-16T14:47:11;31.75;;;18.08;;
50393;SDS011;36308;46.312;25.288;2022-10-16T14:49:40;39.33;;;19.77;;
50393;SDS011;36308;46.312;25.288;2022-10-16T14:52:12;39.75;;;20.77;;
50393;SDS011;36308;46.312;25.288;2022-10-16T14:54:39;57.33;;;26.40;;
50393;SDS011;36308;46.312;25.288;2022-10-16T14:57:12;197.68;;;76.47;;
50393;SDS011;36308;46.312;25.288;2022-10-16T14:59:42;119.85;;;45.05;;
50393;SDS011;36308;46.312;25.288;2022-10-16T15:02:32;142.88;;;54.17;;
50393;SDS011;36308;46.312;25.288;2022-10-16T15:04:58;71.10;;;30.65;;
50393;SDS011;36308;46.312;25.288;2022-10-16T15:07:35;47.20;;;19.80;;
50393;SDS011;36308;46.312;25.288;2022-10-16T15:10:00;38.00;;;16.33;;
50393;SDS011;36308;46.312;25.288;2022-10-16T15:12:26;36.22;;;15.70;;
50393;SDS011;36308;46.312;25.288;2022-10-16T15:14:51;20.95;;;10.38;;
50393;SDS011;36308;46.312;25.288;2022-10-16T15:17:17;24.30;;;11.35;;
50393;SDS011;36308;46.312;25.288;2022-10-16T15:19:42;23.70;;;12.48;;
50393;SDS011;36308;46.312;25.288;2022-10-16T15:22:09;25.20;;;15.68;;
50393;SDS011;36308;46.312;25.288;2022-10-16T15:24:36;46.28;;;28.30;;
50393;SDS011;36308;46.312;25.288;2022-10-16T15:27:01;42.67;;;29.35;;
50393;SDS011;36308;46.312;25.288;2022-10-16T15:29:27;29.45;;;20.67;;
50393;SDS011;36308;46.312;25.288;2022-10-16T15:31:52;27.83;;;19.23;;
50393;SDS011;36308;46.312;25.288;2022-10-16T15:34:18;21.17;;;15.48;;
50393;SDS011;36308;46.312;25.288;2022-10-16T15:36:44;16.30;;;11.45;;
50393;SDS011;36308;46.312;25.288;2022-10-16T15:41:39;18.05;;;12.07;;
50393;SDS011;36308;46.312;25.288;2022-10-16T15:44:06;18.02;;;12.57;;
50393;SDS011;36308;46.312;25.288;2022-10-16T15:46:32;18.52;;;12.23;;
50393;SDS011;36308;46.312;25.288;2022-10-16T15:48:59;16.27;;;9.15;;
50393;SDS011;36308;46.312;25.288;2022-10-16T15:51:25;19.10;;;12.98;;
50393;SDS011;36308;46.312;25.288;2022-10-16T15:53:57;27.52;;;18.73;;
50393;SDS011;36308;46.312;25.288;2022-10-16T15:56:31;25.75;;;18.13;;
50393;SDS011;36308;46.312;25.288;2022-10-16T15:58:58;33.80;;;27.00;;
50393;SDS011;36308;46.312;25.288;2022-10-16T16:01:24;36.10;;;29.77;;
50393;SDS011;36308;46.312;25.288;2022-10-16T16:03:53;33.03;;;26.52;;
50393;SDS011;36308;46.312;25.288;2022-10-16T16:06:20;27.63;;;21.05;;
50393;SDS011;36308;46.312;25.288;2022-10-16T16:08:48;27.98;;;21.30;;
50393;SDS011;36308;46.312;25.288;2022-10-16T16:11:15;25.52;;;19.98;;
50393;SDS011;36308;46.312;25.288;2022-10-16T16:13:41;24.42;;;20.17;;
50393;SDS011;36308;46.312;25.288;2022-10-16T16:16:11;27.55;;;22.52;;
50393;SDS011;36308;46.312;25.288;2022-10-16T16:18:38;33.45;;;24.38;;
50393;SDS011;36308;46.312;25.288;2022-10-16T16:21:04;44.38;;;32.33;;
50393;SDS011;36308;46.312;25.288;2022-10-16T16:23:30;50.42;;;37.13;;
50393;SDS011;36308;46.312;25.288;2022-10-16T16:26:10;45.03;;;29.90;;
50393;SDS011;36308;46.312;25.288;2022-10-16T16:28:36;44.22;;;31.25;;
50393;SDS011;36308;46.312;25.288;2022-10-16T16:31:02;50.45;;;34.45;;
50393;SDS011;36308;46.312;25.288;2022-10-16T16:33:28;54.90;;;37.38;;
50393;SDS011;36308;46.312;25.288;2022-10-16T16:35:59;63.35;;;41.58;;
50393;SDS011;36308;46.312;25.288;2022-10-16T16:38:26;65.17;;;44.67;;